This is the latest recevied weather packets stored in our database for station/object HB9TVK-13. If no packets are shown the sender has not sent any weather packets the latest 1 day(s).
| Time | Temp. | Humidity | Pressure | Rain* | Wind** | Luminosity | Snow |
|---|---|---|---|---|---|---|---|
| 1778010438 | 11.11° C | 89% | 1010.9 hPa | 0 mm | 0.45 m/s, 153° | - | - |
| 1778009835 | 11.11° C | 89% | 1010.8 hPa | 0 mm | 0.45 m/s, 144° | - | - |
| 1778009236 | 11.11° C | 89% | 1010.7 hPa | 0 mm | 0.45 m/s, 142° | - | - |
| 1778008636 | 11.11° C | 89% | 1010.6 hPa | 0 mm | 1.34 m/s, 150° | - | - |
| 1778008036 | 11.67° C | 89% | 1010.5 hPa | 0 mm | 0.89 m/s, 156° | - | - |
| 1778007437 | 11.67° C | 90% | 1010.3 hPa | 0 mm | 1.34 m/s, 162° | - | - |
| 1778006838 | 11.67° C | 89% | 1010.3 hPa | 0 mm | 1.34 m/s, 168° | - | - |
| 1778006238 | 12.22° C | 89% | 1010.2 hPa | 0 mm | 1.34 m/s, 163° | - | - |
| 1778005635 | 12.22° C | 89% | 1010.3 hPa | 0.25 mm | 1.34 m/s, 162° | - | - |
| 1778005036 | 12.22° C | 89% | 1010.3 hPa | 0.25 mm | 1.34 m/s, 161° | - | - |
| 1778004436 | 11.67° C | 91% | 1010.4 hPa | 0.25 mm | 1.79 m/s, 164° | - | - |
| 1778003837 | 11.67° C | 92% | 1010.3 hPa | 0.25 mm | 1.79 m/s, 167° | - | - |
| 1778003237 | 11.67° C | 92% | 1010.4 hPa | 0.25 mm | 1.79 m/s, 157° | - | - |
| 1778002637 | 11.11° C | 92% | 1010.5 hPa | 0.76 mm | 1.34 m/s, 176° | - | - |
| 1778002037 | 11.11° C | 93% | 1010.4 hPa | 1.78 mm | 1.34 m/s, 187° | - | - |
| 1778001436 | 11.11° C | 93% | 1010.2 hPa | 2.03 mm | 0.89 m/s, 206° | - | - |
| 1778000836 | 11.11° C | 92% | 1010.1 hPa | 2.29 mm | 0.89 m/s, 220° | - | - |
| 1777999637 | 11.11° C | 91% | 1010 hPa | 2.29 mm | 0 m/s | - | - |
| 1777999037 | 11.11° C | 90% | 1010.2 hPa | 1.78 mm | 1.34 m/s, 214° | - | - |
| 1777998437 | 11.67° C | 88% | 1010.6 hPa | 0.76 mm | 2.24 m/s, 219° | - | - |
| 1777997838 | 11.67° C | 87% | 1010.6 hPa | 0.51 mm | 2.68 m/s, 209° | - | - |
| 1777997235 | 11.67° C | 86% | 1010.3 hPa | 0.51 mm | 1.79 m/s, 203° | - | - |
| 1777996636 | 12.22° C | 85% | 1010.4 hPa | 0.51 mm | 0.89 m/s, 205° | - | - |
| 1777996036 | 12.78° C | 84% | 1010.3 hPa | 0.51 mm | 0.89 m/s, 204° | - | - |
| 1777995436 | 13.33° C | 81% | 1010.3 hPa | 0.25 mm | 1.34 m/s, 278° | - | - |
* Rain latest hour (hover to see other rain measurements)
** Current wind speed in m/s (hover to see current wind gust speed)